KASX/ASX METAR and TAF weather

Enter ICAO airport designator
Station Type Date Time Source
KASX METAR 2021/01/17 18:53 UTC NOAA

KASX 171853Z AUTO 02004KT 10SM OVC019 M04/M07 A2976 RMK AO2 SLP089 T10391072


Station Type Date Time Source
KASX Decoded METAR 2021/01/17 18:53 UTC NOAA

ASHLAND KENNEDY MEMORIAL, WI, United States (KASX) 46-33N 090-55W 251M
Jan 17, 2021 - 01:53 PM EST / 2021.01.17 1853 UTC
Wind: from the NNE (020 degrees) at 5 MPH (4 KT):0
Visibility: 10 mile(s):0
Sky conditions: overcast
Temperature: 25.0 F (-3.9 C)
Windchill: 19 F (-7 C):1
Dew Point: 19.0 F (-7.2 C)
Relative Humidity: 77%
Pressure (altimeter): 29.76 in. Hg (1007 hPa)
ob: KASX 171853Z AUTO 02004KT 10SM OVC019 M04/M07 A2976 RMK AO2 SLP089 T10391072
cycle: 19

Station Type Date Time Source
KASX TAF UTC NOAA

Error!

Example: see airport list